Time;durP1;ratioP1;P1;durP2;ratioP2;P2;SDS_P1;SDS_P2;PMS_P1;PMS_P2;Temp;Humidity;BMP_temperature;BMP_pressure;BME280_temperature;BME280_humidity;BME280_pressure;Samples;Min_cycle;Max_cycle;Signal;HPM_P1;HPM_P2
2022/01/11 00:02:06;;;;;;;;;21.50;21.50;15.50;99.90;;;;;;5012618;28;11485;-53
2022/01/11 00:04:37;;;;;;;;;23.75;22.75;15.60;99.90;;;;;;5015435;28;11476;-51
2022/01/11 00:07:11;;;;;;;;;21.00;21.00;15.60;99.90;;;;;;5014461;28;11505;-60
2022/01/11 00:09:45;;;;;;;;;19.00;19.00;15.60;99.90;;;;;;4997026;28;11586;-59
2022/01/11 00:12:16;;;;;;;;;21.75;21.75;15.50;99.90;;;;;;5018278;28;11487;-59
2022/01/11 00:14:47;;;;;;;;;19.50;19.50;15.60;99.90;;;;;;5015642;28;11663;-56
2022/01/11 00:17:18;;;;;;;;;22.00;22.00;15.60;99.90;;;;;;4998445;28;11513;-58
2022/01/11 00:19:49;;;;;;;;;21.25;21.00;15.50;99.90;;;;;;5016443;28;11482;-59
2022/01/11 00:22:26;;;;;;;;;21.75;21.75;15.50;99.90;;;;;;4998364;28;11566;-57
2022/01/11 00:25:01;;;;;;;;;23.75;23.00;15.50;99.90;;;;;;4998427;28;11508;-57
2022/01/11 00:27:32;;;;;;;;;25.75;25.75;15.50;99.90;;;;;;5014568;28;11495;-58
2022/01/11 00:30:08;;;;;;;;;27.25;27.25;15.50;99.90;;;;;;5003561;28;12185;-57
2022/01/11 00:32:47;;;;;;;;;21.50;21.50;15.50;99.90;;;;;;4982804;28;12308;-58
2022/01/11 00:35:22;;;;;;;;;24.00;22.75;15.50;99.90;;;;;;5015316;28;12831;-56
2022/01/11 00:37:55;;;;;;;;;29.25;27.75;15.50;99.90;;;;;;5015495;28;11476;-58
2022/01/11 00:40:25;;;;;;;;;28.50;28.50;15.50;99.90;;;;;;4995278;28;11450;-58
2022/01/11 00:43:02;;;;;;;;;26.50;26.50;15.50;99.90;;;;;;4994887;28;11505;-58
2022/01/11 00:45:33;;;;;;;;;26.25;23.25;15.40;99.90;;;;;;5012691;28;11778;-57
2022/01/11 00:48:04;;;;;;;;;21.00;21.00;15.50;99.90;;;;;;4995515;28;11500;-58
2022/01/11 00:50:36;;;;;;;;;20.50;20.50;15.40;99.90;;;;;;5012702;28;11517;-57
2022/01/11 00:53:08;;;;;;;;;21.00;21.00;15.40;99.90;;;;;;5013250;28;11536;-58
2022/01/11 00:55:40;;;;;;;;;20.50;20.50;15.40;99.90;;;;;;5015383;28;11514;-58
2022/01/11 00:58:11;;;;;;;;;22.00;21.75;15.40;99.90;;;;;;4996824;28;11567;-58
2022/01/11 01:00:43;;;;;;;;;19.00;19.00;15.40;99.90;;;;;;5012323;28;11652;-53
2022/01/11 01:03:14;;;;;;;;;22.50;22.50;15.40;99.90;;;;;;5016265;28;11646;-53
2022/01/11 01:05:46;;;;;;;;;22.00;22.00;15.50;99.90;;;;;;5010857;28;11493;-53
2022/01/11 01:08:17;;;;;;;;;20.00;20.00;15.50;99.90;;;;;;4998103;28;11481;-51
2022/01/11 01:10:48;;;;;;;;;21.75;21.75;15.50;99.90;;;;;;5013975;28;11465;-54
2022/01/11 01:13:30;;;;;;;;;20.75;20.75;15.50;99.90;;;;;;5012779;28;12270;-50
2022/01/11 01:16:06;;;;;;;;;19.50;19.50;15.40;99.90;;;;;;4998247;28;11462;-51
2022/01/11 01:18:51;;;;;;;;;21.00;21.00;15.40;99.90;;;;;;4994196;28;11490;-51
2022/01/11 01:21:22;;;;;;;;;19.50;19.50;15.40;99.90;;;;;;5013806;28;11471;-53
2022/01/11 01:23:52;;;;;;;;;20.00;19.75;15.40;99.90;;;;;;4994956;28;12262;-52
2022/01/11 01:26:22;;;;;;;;;19.75;19.75;15.40;99.90;;;;;;4998728;28;11433;-52
2022/01/11 01:28:54;;;;;;;;;17.75;17.75;15.40;99.90;;;;;;5015820;28;11529;-48
2022/01/11 01:31:29;;;;;;;;;14.75;14.75;15.40;99.90;;;;;;5012504;28;12289;-58
2022/01/11 01:34:05;;;;;;;;;17.00;17.00;15.30;99.90;;;;;;5012922;28;11547;-58
2022/01/11 01:36:35;;;;;;;;;13.00;13.00;15.30;99.90;;;;;;4997576;28;11666;-58
2022/01/11 01:39:07;;;;;;;;;15.50;15.50;15.30;99.90;;;;;;4998979;28;11469;-59
2022/01/11 01:41:43;;;;;;;;;14.00;14.00;15.30;99.90;;;;;;4996847;28;11502;-54
2022/01/11 01:44:14;;;;;;;;;14.50;14.50;15.30;99.90;;;;;;5012229;28;11461;-56
2022/01/11 01:46:45;;;;;;;;;15.25;15.25;15.20;99.90;;;;;;4997483;28;11516;-54
2022/01/11 01:49:18;;;;;;;;;16.25;16.25;15.20;99.90;;;;;;5015434;28;11520;-53
2022/01/11 01:51:51;;;;;;;;;14.00;14.00;15.20;99.90;;;;;;5011226;28;11477;-55
2022/01/11 01:54:23;;;;;;;;;15.25;14.00;15.10;99.90;;;;;;4997885;28;11479;-54
2022/01/11 01:56:53;;;;;;;;;13.75;13.75;15.10;99.90;;;;;;5019703;28;11635;-54
2022/01/11 01:59:23;;;;;;;;;13.00;13.00;15.10;99.90;;;;;;5001432;28;11610;-55
2022/01/11 02:01:56;;;;;;;;;9.00;9.00;15.00;99.90;;;;;;5020671;28;11576;-55
2022/01/11 02:04:28;;;;;;;;;12.75;11.75;15.00;99.90;;;;;;5016708;28;11649;-57
2022/01/11 02:06:58;;;;;;;;;14.75;14.75;14.90;99.90;;;;;;5023043;28;11545;-53
2022/01/11 02:09:29;;;;;;;;;12.50;12.50;14.90;99.90;;;;;;5021665;28;11513;-56
2022/01/11 02:12:01;;;;;;;;;12.50;12.50;14.90;99.90;;;;;;5001611;28;11522;-55
2022/01/11 02:14:31;;;;;;;;;14.50;13.75;14.90;99.90;;;;;;4986896;28;11455;-54
2022/01/11 02:17:04;;;;;;;;;15.50;15.50;14.90;99.90;;;;;;5002861;28;12279;-57
2022/01/11 02:19:35;;;;;;;;;11.75;11.75;14.80;99.90;;;;;;5021468;28;12272;-56
2022/01/11 02:22:07;;;;;;;;;13.50;13.50;14.80;99.90;;;;;;5022102;28;11604;-53
2022/01/11 02:24:37;;;;;;;;;14.25;14.25;14.70;99.90;;;;;;5014837;28;11498;-55
2022/01/11 02:27:09;;;;;;;;;15.50;15.50;14.70;99.90;;;;;;4996708;28;11641;-56
2022/01/11 02:29:43;;;;;;;;;14.25;14.25;14.70;99.90;;;;;;5019567;28;12344;-56
2022/01/11 02:32:15;;;;;;;;;14.75;14.75;14.70;99.90;;;;;;5015972;28;11482;-54
2022/01/11 02:34:46;;;;;;;;;16.00;14.75;14.70;99.90;;;;;;5001918;28;11474;-56
2022/01/11 02:37:25;;;;;;;;;14.75;14.75;14.60;99.90;;;;;;5012013;28;11502;-53
2022/01/11 02:40:16;;;;;;;;;16.00;16.00;14.60;99.90;;;;;;4998875;28;12192;-55
2022/01/11 02:42:48;;;;;;;;;17.75;17.75;14.60;99.90;;;;;;5002674;28;11512;-56
2022/01/11 02:45:21;;;;;;;;;13.00;13.00;14.50;99.90;;;;;;4994727;28;11549;-53
2022/01/11 02:47:51;;;;;;;;;15.50;15.50;14.50;99.90;;;;;;5000218;28;11623;-50
2022/01/11 02:50:25;;;;;;;;;13.75;13.75;14.50;99.90;;;;;;5000495;28;11558;-49
2022/01/11 02:52:55;;;;;;;;;15.25;15.25;14.50;99.90;;;;;;5017581;28;11453;-53
2022/01/11 02:55:27;;;;;;;;;15.50;15.00;14.40;99.90;;;;;;4995931;28;11506;-52
2022/01/11 02:58:00;;;;;;;;;14.00;14.00;14.40;99.90;;;;;;4998045;28;11521;-48
2022/01/11 03:00:33;;;;;;;;;17.25;16.00;14.40;99.90;;;;;;5018135;28;11650;-49
2022/01/11 03:03:23;;;;;;;;;20.50;20.50;14.40;99.90;;;;;;5017484;28;11468;-50
2022/01/11 03:05:57;;;;;;;;;15.50;15.50;14.30;99.90;;;;;;4998168;28;11575;-53
2022/01/11 03:08:37;;;;;;;;;19.00;19.00;14.30;99.90;;;;;;4996058;28;12373;-52
2022/01/11 03:11:09;;;;;;;;;16.00;15.50;14.30;99.90;;;;;;4993774;28;11567;-51
2022/01/11 03:13:43;;;;;;;;;17.75;17.75;14.30;99.90;;;;;;4991349;28;11623;-50
2022/01/11 03:16:16;;;;;;;;;11.50;11.50;14.20;99.90;;;;;;4990632;28;11620;-51
2022/01/11 03:18:48;;;;;;;;;12.75;12.75;14.20;99.90;;;;;;4993932;28;11561;-49
2022/01/11 03:21:18;;;;;;;;;14.25;14.25;14.20;99.90;;;;;;4995904;28;11649;-51
2022/01/11 03:23:49;;;;;;;;;12.25;12.00;14.20;99.90;;;;;;4992877;28;11497;-57
2022/01/11 03:26:21;;;;;;;;;10.50;10.50;14.20;99.90;;;;;;4991648;28;11510;-55
2022/01/11 03:28:52;;;;;;;;;10.00;10.00;14.20;99.90;;;;;;4990817;28;11507;-51
2022/01/11 03:31:23;;;;;;;;;10.50;9.00;14.20;99.90;;;;;;5014050;28;11483;-52
2022/01/11 03:33:54;;;;;;;;;9.00;9.00;14.10;99.90;;;;;;4991119;28;11500;-48
2022/01/11 03:36:25;;;;;;;;;5.25;5.25;14.20;99.90;;;;;;4990852;28;11519;-50
2022/01/11 03:38:56;;;;;;;;;5.50;5.50;14.20;99.90;;;;;;4993426;28;11466;-49
2022/01/11 03:41:28;;;;;;;;;7.00;7.00;14.20;99.90;;;;;;4990377;28;11493;-48
2022/01/11 03:44:00;;;;;;;;;8.25;8.25;14.20;99.90;;;;;;4975855;28;11502;-48
2022/01/11 03:46:30;;;;;;;;;9.50;9.25;14.20;99.90;;;;;;4991111;28;11481;-48
2022/01/11 03:49:01;;;;;;;;;8.75;8.75;14.20;99.90;;;;;;4979465;28;11514;-56
2022/01/11 03:51:37;;;;;;;;;11.00;9.75;14.10;99.90;;;;;;4993306;28;11544;-58
2022/01/11 03:54:14;;;;;;;;;8.00;7.75;14.10;99.90;;;;;;5002447;28;11585;-55
2022/01/11 03:57:08;;;;;;;;;7.50;7.50;14.00;99.90;;;;;;4992145;28;11480;-59
2022/01/11 03:59:46;;;;;;;;;7.75;7.75;14.00;99.90;;;;;;4989862;28;11506;-53
2022/01/11 04:02:19;;;;;;;;;6.50;6.50;13.90;99.90;;;;;;5009087;28;11507;-53
2022/01/11 04:04:55;;;;;;;;;8.00;8.00;13.90;99.90;;;;;;4986829;28;11536;-55
2022/01/11 04:07:27;;;;;;;;;7.25;7.25;13.90;99.90;;;;;;4990246;28;11489;-56
2022/01/11 04:09:58;;;;;;;;;8.50;8.50;13.90;99.90;;;;;;4995256;28;11531;-51
2022/01/11 04:12:30;;;;;;;;;12.50;12.50;13.90;99.90;;;;;;4988657;28;11455;-55
2022/01/11 04:15:01;;;;;;;;;17.25;17.25;14.00;99.90;;;;;;4640388;28;10000180;-56
2022/01/11 04:17:31;;;;;;;;;14.25;13.25;13.90;99.90;;;;;;5000260;28;8886;-55
2022/01/11 04:20:02;;;;;;;;;17.00;17.00;13.90;99.90;;;;;;4990319;28;11674;-55
2022/01/11 04:22:33;;;;;;;;;19.75;17.00;13.90;99.90;;;;;;4988573;28;12234;-54
2022/01/11 04:25:04;;;;;;;;;13.25;13.00;13.80;99.90;;;;;;4989178;28;11549;-54
2022/01/11 04:27:35;;;;;;;;;11.75;11.75;13.80;99.90;;;;;;5007203;28;11518;-50
2022/01/11 04:30:07;;;;;;;;;10.50;10.50;13.80;99.90;;;;;;5001711;28;11502;-58
2022/01/11 04:32:39;;;;;;;;;11.00;11.00;13.70;99.90;;;;;;4986920;28;11565;-51
2022/01/11 04:35:17;;;;;;;;;15.00;15.00;13.70;99.90;;;;;;4294527;28;10000822;-59
2022/01/11 04:37:49;;;;;;;;;13.50;11.75;13.70;99.90;;;;;;4994910;28;8870;-60
2022/01/11 04:40:21;;;;;;;;;12.00;12.00;13.70;99.90;;;;;;4990404;28;11509;-56
2022/01/11 04:42:52;;;;;;;;;15.25;15.25;13.70;99.90;;;;;;5003437;28;11647;-59
2022/01/11 04:45:23;;;;;;;;;18.00;17.50;13.70;99.90;;;;;;4989836;28;11616;-59
2022/01/11 04:47:56;;;;;;;;;17.50;17.50;13.60;99.90;;;;;;4955411;28;11578;-58
2022/01/11 04:50:30;;;;;;;;;16.00;16.00;13.60;99.90;;;;;;4992272;28;11625;-57
2022/01/11 04:53:01;;;;;;;;;17.00;16.00;13.60;99.90;;;;;;4989870;28;12404;-57
2022/01/11 04:55:35;;;;;;;;;12.75;12.75;13.60;99.90;;;;;;4996094;28;12345;-58
2022/01/11 04:58:06;;;;;;;;;13.75;13.75;13.60;99.90;;;;;;4993510;28;12477;-59
2022/01/11 05:00:37;;;;;;;;;19.00;19.00;13.50;99.90;;;;;;4973690;28;11580;-58
2022/01/11 05:03:08;;;;;;;;;21.00;20.25;13.50;99.90;;;;;;5009093;28;11624;-58
2022/01/11 05:05:44;;;;;;;;;17.50;17.50;13.50;99.90;;;;;;5002687;28;11592;-57
2022/01/11 05:08:15;;;;;;;;;18.75;17.75;13.50;99.90;;;;;;4639489;28;9999761;-56
2022/01/11 05:10:46;;;;;;;;;18.00;18.00;13.50;99.90;;;;;;4995810;28;8883;-57
2022/01/11 05:13:21;;;;;;;;;14.75;14.75;13.40;99.90;;;;;;4971301;28;11794;-54
2022/01/11 05:15:52;;;;;;;;;18.25;18.25;13.40;99.90;;;;;;5002524;28;11630;-55
2022/01/11 05:18:23;;;;;;;;;16.75;16.75;13.40;99.90;;;;;;5003429;28;11634;-55
2022/01/11 05:20:55;;;;;;;;;19.00;19.00;13.30;99.90;;;;;;4985377;28;11643;-55
2022/01/11 05:23:25;;;;;;;;;16.50;16.50;13.20;99.90;;;;;;4989154;28;11573;-59
2022/01/11 05:25:55;;;;;;;;;13.50;13.50;13.20;99.90;;;;;;4986322;28;11638;-62
2022/01/11 05:28:26;;;;;;;;;18.25;18.25;13.20;99.90;;;;;;4293143;28;10000776;-57
2022/01/11 05:30:56;;;;;;;;;19.25;19.25;13.20;99.90;;;;;;4973859;28;8963;-56
2022/01/11 05:33:27;;;;;;;;;17.75;17.75;13.20;99.90;;;;;;4990963;28;11628;-56
2022/01/11 05:35:58;;;;;;;;;13.50;13.50;13.10;99.90;;;;;;5005440;28;12334;-55
2022/01/11 05:38:31;;;;;;;;;17.75;17.75;13.10;99.90;;;;;;4989575;28;11650;-55
2022/01/11 05:41:01;;;;;;;;;18.00;18.00;13.10;99.90;;;;;;4990977;28;11615;-55
2022/01/11 05:43:31;;;;;;;;;17.50;17.50;13.00;99.90;;;;;;4988009;28;12321;-56
2022/01/11 05:46:03;;;;;;;;;19.00;18.00;13.00;99.90;;;;;;5001938;28;11626;-54
2022/01/11 05:48:37;;;;;;;;;20.75;20.75;13.00;99.90;;;;;;4990506;28;12311;-54
2022/01/11 05:51:08;;;;;;;;;20.50;20.50;13.00;99.90;;;;;;4991992;28;12282;-52
2022/01/11 05:53:44;;;;;;;;;18.50;18.50;12.90;99.90;;;;;;4991166;28;11745;-61
2022/01/11 05:56:14;;;;;;;;;17.75;17.75;12.90;99.90;;;;;;4988356;28;11570;-54
2022/01/11 05:58:46;;;;;;;;;18.75;16.75;12.90;99.90;;;;;;4988031;28;11641;-54
2022/01/11 06:01:17;;;;;;;;;16.00;16.00;12.90;99.90;;;;;;5007038;28;11589;-55
2022/01/11 06:03:48;;;;;;;;;14.50;14.50;12.90;99.90;;;;;;5008388;28;11574;-52
2022/01/11 06:06:20;;;;;;;;;15.50;15.50;12.90;99.90;;;;;;4988436;28;11696;-53
2022/01/11 06:09:02;;;;;;;;;17.50;17.50;12.90;99.90;;;;;;4992916;28;11602;-52
2022/01/11 06:11:35;;;;;;;;;15.00;15.00;12.80;99.90;;;;;;4991954;28;11589;-50
2022/01/11 06:14:07;;;;;;;;;13.00;13.00;12.80;99.90;;;;;;4988193;28;11695;-54
2022/01/11 06:16:37;;;;;;;;;15.75;15.25;12.80;99.90;;;;;;4988035;28;11599;-53
2022/01/11 06:19:12;;;;;;;;;14.00;14.00;12.80;99.90;;;;;;4986510;28;12379;-49
2022/01/11 06:21:53;;;;;;;;;17.75;17.75;12.70;99.90;;;;;;4992903;28;11612;-54
2022/01/11 06:24:26;;;;;;;;;16.00;16.00;12.70;99.90;;;;;;4991486;28;12416;-52
2022/01/11 06:26:57;;;;;;;;;16.50;16.50;12.70;99.90;;;;;;5005082;28;13181;-53
2022/01/11 06:29:28;;;;;;;;;13.00;13.00;12.70;99.90;;;;;;4987089;28;11697;-59
2022/01/11 06:31:59;;;;;;;;;14.00;14.00;12.70;99.90;;;;;;4939976;28;11592;-59
2022/01/11 06:34:29;;;;;;;;;14.75;14.75;12.70;99.90;;;;;;4997456;28;11530;-52
2022/01/11 06:37:00;;;;;;;;;12.75;12.25;12.70;99.90;;;;;;4984607;28;11597;-53
2022/01/11 06:39:36;;;;;;;;;13.75;13.75;12.70;99.90;;;;;;4989996;28;11582;-53
2022/01/11 06:42:10;;;;;;;;;16.00;16.00;12.60;99.90;;;;;;4971880;28;11567;-52
2022/01/11 06:44:44;;;;;;;;;14.25;14.25;12.50;99.90;;;;;;5007185;28;12269;-52
2022/01/11 06:47:15;;;;;;;;;14.50;14.50;12.60;99.90;;;;;;5010145;28;11574;-52
2022/01/11 06:49:46;;;;;;;;;15.25;15.25;12.50;99.90;;;;;;5008566;28;11546;-53
2022/01/11 06:52:17;;;;;;;;;15.00;15.00;12.50;99.90;;;;;;4991625;28;11654;-53
2022/01/11 06:54:52;;;;;;;;;15.50;15.50;12.50;99.90;;;;;;4988014;28;12337;-53
2022/01/11 06:57:22;;;;;;;;;16.00;15.25;12.50;99.90;;;;;;5006773;28;11587;-53
2022/01/11 06:59:52;;;;;;;;;12.25;11.50;12.50;99.90;;;;;;4995795;28;11628;-60
2022/01/11 07:02:27;;;;;;;;;12.25;12.25;12.50;99.90;;;;;;4989868;28;11569;-55
2022/01/11 07:05:34;;;;;;;;;9.75;9.75;12.50;99.90;;;;;;4988567;28;11583;-52
2022/01/11 07:08:06;;;;;;;;;14.25;14.25;12.40;99.90;;;;;;4996567;28;11681;-53
2022/01/11 07:10:44;;;;;;;;;12.75;12.75;12.40;99.90;;;;;;5013162;28;11601;-51
2022/01/11 07:13:16;;;;;;;;;13.00;13.00;12.30;99.90;;;;;;4978996;28;11594;-58
2022/01/11 07:15:51;;;;;;;;;12.00;12.00;12.30;99.90;;;;;;5009049;28;11613;-50
2022/01/11 07:18:26;;;;;;;;;12.75;10.25;12.20;99.90;;;;;;5012466;28;12340;-52
2022/01/11 07:21:00;;;;;;;;;15.00;15.00;12.20;99.90;;;;;;5009578;28;11596;-50
2022/01/11 07:23:34;;;;;;;;;12.75;12.75;12.20;99.90;;;;;;4992159;28;12388;-55
2022/01/11 07:26:07;;;;;;;;;12.50;12.50;12.10;99.90;;;;;;4992049;28;11610;-52
2022/01/11 07:28:44;;;;;;;;;14.75;14.75;12.10;99.90;;;;;;4994386;28;11603;-53
2022/01/11 07:31:18;;;;;;;;;13.25;12.50;12.00;99.90;;;;;;4975846;28;11626;-54
2022/01/11 07:33:54;;;;;;;;;13.25;11.50;12.00;99.90;;;;;;4975879;28;11584;-55
2022/01/11 07:36:26;;;;;;;;;11.00;11.00;11.90;99.90;;;;;;4991677;28;11733;-54
2022/01/11 07:39:02;;;;;;;;;11.25;11.25;11.90;99.90;;;;;;4992902;28;11641;-54
2022/01/11 07:41:34;;;;;;;;;8.25;8.25;11.90;99.90;;;;;;4994073;28;12383;-55
2022/01/11 07:44:31;;;;;;;;;11.00;10.50;12.00;99.90;;;;;;4990820;28;11569;-55
2022/01/11 07:47:04;;;;;;;;;23.67;23.67;12.00;99.90;;;;;;4994581;28;11596;-54
2022/01/11 07:49:40;;;;;;;;;12.25;12.25;12.00;99.90;;;;;;4997608;28;11602;-54
2022/01/11 07:52:14;;;;;;;;;15.00;15.00;11.90;99.90;;;;;;4994157;28;12354;-54
2022/01/11 07:54:47;;;;;;;;;13.00;13.00;11.90;99.90;;;;;;4989969;28;11605;-52
2022/01/11 07:57:23;;;;;;;;;14.50;14.50;11.80;99.90;;;;;;4993890;28;11617;-54
2022/01/11 07:59:53;;;;;;;;;13.00;13.00;11.80;99.90;;;;;;4992277;28;11580;-52
2022/01/11 08:02:42;;;;;;;;;22.00;21.33;11.70;99.90;;;;;;5001953;28;11543;-52
2022/01/11 08:05:32;;;;;;;;;34.67;32.67;11.80;99.90;;;;;;4991747;28;8832;-52
2022/01/11 08:08:06;;;;;;;;;34.33;33.00;11.70;99.90;;;;;;4991301;28;8872;-54
2022/01/11 08:10:37;;;;;;;;;38.00;34.33;11.70;99.90;;;;;;4990567;28;9548;-52
2022/01/11 08:13:13;;;;;;;;;61.00;51.25;11.70;99.90;;;;;;4991639;28;8864;-53
2022/01/11 08:15:45;;;;;;;;;77.25;67.50;11.70;99.90;;;;;;5005105;28;8898;-54
2022/01/11 08:18:17;;;;;;;;;80.25;73.50;11.70;99.90;;;;;;4995081;28;8852;-54
2022/01/11 08:20:49;;;;;;;;;78.75;71.50;11.70;99.90;;;;;;4989896;28;8886;-49
2022/01/11 08:23:22;;;;;;;;;83.75;79.25;11.60;99.90;;;;;;4995321;28;8928;-51
2022/01/11 08:25:53;;;;;;;;;83.00;78.25;11.50;99.90;;;;;;5007062;28;8867;-51
2022/01/11 08:28:26;;;;;;;;;83.00;77.75;11.50;99.90;;;;;;4988736;28;8896;-53
2022/01/11 08:31:01;;;;;;;;;82.50;76.25;11.40;99.90;;;;;;4963443;28;8864;-53
2022/01/11 08:33:36;;;;;;;;;76.00;67.50;11.40;99.90;;;;;;4991530;28;8883;-55
2022/01/11 08:36:12;;;;;;;;;44.00;39.67;11.50;99.90;;;;;;4989668;28;8902;-53
2022/01/11 08:38:45;;;;;;;;;24.67;24.33;11.50;99.90;;;;;;4994158;28;8836;-49
2022/01/11 08:41:19;;;;;;;;;13.75;13.75;11.50;99.90;;;;;;4997401;28;8871;-51
2022/01/11 08:43:52;;;;;;;;;13.00;13.00;11.40;99.90;;;;;;4974417;28;11581;-54
2022/01/11 08:46:24;;;;;;;;;14.00;13.00;11.40;99.90;;;;;;4995553;28;11559;-53
2022/01/11 08:49:05;;;;;;;;;13.75;13.00;11.40;99.90;;;;;;4992881;28;11607;-51
2022/01/11 08:51:35;;;;;;;;;13.00;13.00;11.50;99.90;;;;;;4994319;28;11556;-51
2022/01/11 08:54:08;;;;;;;;;15.00;15.00;11.40;99.90;;;;;;4992773;28;12029;-53
2022/01/11 08:56:41;;;;;;;;;11.00;11.00;11.40;99.90;;;;;;4993141;28;11629;-51
2022/01/11 08:59:14;;;;;;;;;11.50;11.50;11.30;99.90;;;;;;4993537;28;11708;-54
2022/01/11 09:01:44;;;;;;;;;12.00;12.00;11.20;99.90;;;;;;4996016;28;11583;-53
2022/01/11 09:04:16;;;;;;;;;12.50;12.50;11.20;99.90;;;;;;4992496;28;11588;-53
2022/01/11 09:07:13;;;;;;;;;11.00;11.00;11.20;99.90;;;;;;5006877;28;12575;-54
2022/01/11 09:09:43;;;;;;;;;10.75;10.75;11.10;99.90;;;;;;5008515;28;12343;-53
2022/01/11 09:12:16;;;;;;;;;7.50;7.50;11.20;99.90;;;;;;4994276;28;11517;-53
2022/01/11 09:14:48;;;;;;;;;12.50;12.50;11.20;99.90;;;;;;4992703;28;11649;-55
2022/01/11 09:17:20;;;;;;;;;10.50;10.50;11.20;99.90;;;;;;5006866;28;11599;-53
2022/01/11 09:19:51;;;;;;;;;11.00;11.00;11.20;99.90;;;;;;4993911;28;11587;-53
2022/01/11 09:22:24;;;;;;;;;10.25;9.00;11.10;99.90;;;;;;4995607;28;11563;-53
2022/01/11 09:24:56;;;;;;;;;10.00;10.00;11.10;99.90;;;;;;4989741;28;11607;-53
2022/01/11 09:27:31;;;;;;;;;9.00;9.00;11.10;99.90;;;;;;4992069;28;11601;-54
2022/01/11 09:30:08;;;;;;;;;12.00;12.00;11.10;99.90;;;;;;4992443;28;11558;-55
2022/01/11 09:32:44;;;;;;;;;10.25;10.25;11.10;99.90;;;;;;5011072;28;11619;-53
2022/01/11 09:35:14;;;;;;;;;10.25;10.25;11.00;99.90;;;;;;4990817;28;11554;-52
2022/01/11 09:37:51;;;;;;;;;10.25;10.25;11.00;99.90;;;;;;5012331;28;11628;-53
2022/01/11 09:40:23;;;;;;;;;13.50;12.00;10.90;99.90;;;;;;4991206;28;11582;-54
2022/01/11 09:43:04;;;;;;;;;9.25;9.25;10.80;99.90;;;;;;4990618;28;11636;-54
2022/01/11 09:45:37;;;;;;;;;9.50;8.25;10.80;99.90;;;;;;5006611;28;11572;-53
2022/01/11 09:48:12;;;;;;;;;8.25;8.25;10.70;99.90;;;;;;4992634;28;11578;-54
2022/01/11 09:50:47;;;;;;;;;10.00;10.00;10.70;99.90;;;;;;5009365;28;11563;-54
2022/01/11 09:53:18;;;;;;;;;10.50;10.50;10.70;99.90;;;;;;4971880;28;11627;-51
2022/01/11 09:55:50;;;;;;;;;5.50;5.50;10.60;99.90;;;;;;4985958;28;11595;-52
2022/01/11 09:58:24;;;;;;;;;9.50;9.50;10.70;99.90;;;;;;4990579;28;11575;-53
2022/01/11 10:00:54;;;;;;;;;9.25;9.25;10.70;99.90;;;;;;4991559;28;11633;-54
2022/01/11 10:04:01;;;;;;;;;9.50;9.50;10.70;99.90;;;;;;4995457;28;11582;-53
2022/01/11 10:07:08;;;;;;;;;9.00;9.00;10.70;99.90;;;;;;4985299;28;11562;-53
2022/01/11 10:09:48;;;;;;;;;3.25;3.25;10.70;99.90;;;;;;5005783;28;11735;-53
2022/01/11 10:12:23;;;;;;;;;9.50;9.50;10.70;99.90;;;;;;4989754;28;11709;-54
2022/01/11 10:14:56;;;;;;;;;12.00;11.25;10.60;99.90;;;;;;4993245;28;11580;-53
2022/01/11 10:17:38;;;;;;;;;10.25;10.25;10.60;99.90;;;;;;4998508;28;11579;-54
2022/01/11 10:20:22;;;;;;;;;9.50;9.50;10.60;99.90;;;;;;4996719;28;11753;-52
2022/01/11 10:23:08;;;;;;;;;9.00;9.00;10.50;99.90;;;;;;4997408;28;11564;-53
2022/01/11 10:25:47;;;;;;;;;10.75;10.00;10.50;99.90;;;;;;4987339;28;11539;-52
2022/01/11 10:28:35;;;;;;;;;10.00;10.00;10.50;99.90;;;;;;4976207;28;11583;-53
2022/01/11 10:31:09;;;;;;;;;9.50;9.25;10.50;99.90;;;;;;4997117;28;11739;-51
2022/01/11 10:34:04;;;;;;;;;10.50;10.50;10.50;99.90;;;;;;4995836;28;11568;-55
2022/01/11 10:36:45;;;;;;;;;6.00;6.00;10.50;99.90;;;;;;4974702;28;11642;-54
2022/01/11 10:39:31;;;;;;;;;9.25;9.25;10.50;99.90;;;;;;5010105;28;12391;-55
2022/01/11 10:42:23;;;;;;;;;9.25;9.25;10.50;99.90;;;;;;5013722;28;11554;-54
2022/01/11 10:45:05;;;;;;;;;11.00;10.25;10.40;99.90;;;;;;4979472;28;11551;-52
2022/01/11 10:47:54;;;;;;;;;9.00;9.00;10.40;99.90;;;;;;4996146;28;11586;-55
2022/01/11 10:50:28;;;;;;;;;10.00;10.00;10.40;99.90;;;;;;4996090;28;11758;-53
2022/01/11 10:53:04;;;;;;;;;9.25;9.25;10.40;99.90;;;;;;4996465;28;11566;-52
2022/01/11 10:55:35;;;;;;;;;12.25;12.25;10.40;99.90;;;;;;4992446;28;11619;-52
2022/01/11 10:58:33;;;;;;;;;9.25;9.25;10.30;99.90;;;;;;4991116;28;11733;-53
2022/01/11 11:01:08;;;;;;;;;9.75;9.75;10.30;99.90;;;;;;5009329;28;11615;-54
2022/01/11 11:03:44;;;;;;;;;7.75;7.75;10.30;99.90;;;;;;4994253;28;11769;-55
2022/01/11 11:06:15;;;;;;;;;10.25;10.25;10.30;99.90;;;;;;5005830;28;11545;-53
2022/01/11 11:08:50;;;;;;;;;9.75;8.00;10.30;99.90;;;;;;4979790;28;11587;-54
2022/01/11 11:11:25;;;;;;;;;9.25;9.25;10.30;99.90;;;;;;4976998;28;11551;-53
2022/01/11 11:14:14;;;;;;;;;5.75;5.75;10.30;99.90;;;;;;4994903;28;11501;-56
2022/01/11 11:16:57;;;;;;;;;7.50;7.50;10.30;99.90;;;;;;4994247;28;11655;-53
2022/01/11 11:19:59;;;;;;;;;9.75;9.75;10.20;99.90;;;;;;5012955;28;11660;-51
2022/01/11 11:22:32;;;;;;;;;7.00;7.00;10.20;99.90;;;;;;4995445;28;11614;-53
2022/01/11 11:25:03;;;;;;;;;5.75;5.75;10.10;99.90;;;;;;5009951;28;11569;-55
2022/01/11 11:27:34;;;;;;;;;5.25;5.25;10.10;99.90;;;;;;4996942;28;11633;-53
2022/01/11 11:30:07;;;;;;;;;6.50;6.50;10.10;99.90;;;;;;4996554;28;11542;-53
2022/01/11 11:32:38;;;;;;;;;7.75;5.50;10.10;99.90;;;;;;4994009;28;12260;-55
2022/01/11 11:35:09;;;;;;;;;5.00;5.00;10.10;99.90;;;;;;4996882;28;12282;-55
2022/01/11 11:37:43;;;;;;;;;8.75;8.75;10.10;99.90;;;;;;4995974;28;11548;-53
2022/01/11 11:40:21;;;;;;;;;6.00;6.00;10.00;99.90;;;;;;4994209;28;12480;-51
2022/01/11 11:42:59;;;;;;;;;5.75;5.75;10.00;99.90;;;;;;4993327;28;13263;-54
2022/01/11 11:45:36;;;;;;;;;5.00;4.00;10.00;99.90;;;;;;4993390;28;11539;-53
2022/01/11 11:48:13;;;;;;;;;8.75;8.75;10.00;99.90;;;;;;4991882;28;11516;-56
2022/01/11 11:51:14;;;;;;;;;7.50;7.50;9.90;99.90;;;;;;4993469;28;11507;-56
2022/01/11 11:53:49;;;;;;;;;8.00;8.00;9.90;99.90;;;;;;4997055;28;11550;-53
2022/01/11 11:56:33;;;;;;;;;10.00;10.00;9.90;99.90;;;;;;4973727;28;11702;-54
2022/01/11 11:59:09;;;;;;;;;9.25;9.25;9.90;99.90;;;;;;4992460;28;11580;-54
2022/01/11 12:01:46;;;;;;;;;4.00;4.00;10.00;99.90;;;;;;4995254;28;11551;-54
2022/01/11 12:05:00;;;;;;;;;8.00;8.00;10.00;99.90;;;;;;4988863;28;11567;-56
2022/01/11 12:07:44;;;;;;;;;8.25;8.25;10.00;99.90;;;;;;4996053;28;11626;-51
2022/01/11 12:10:29;;;;;;;;;7.00;7.00;10.00;99.90;;;;;;4988903;28;12347;-53
2022/01/11 12:13:04;;;;;;;;;9.00;9.00;9.90;99.90;;;;;;5006959;28;11511;-54
2022/01/11 12:15:37;;;;;;;;;4.50;4.50;9.90;99.90;;;;;;5018669;28;11490;-54
2022/01/11 12:18:09;;;;;;;;;8.00;8.00;9.90;99.90;;;;;;4995733;28;11494;-55
2022/01/11 12:20:45;;;;;;;;;9.25;9.25;9.90;99.90;;;;;;5009906;28;11522;-53
2022/01/11 12:23:36;;;;;;;;;5.75;5.75;9.80;99.90;;;;;;5013884;28;12252;-53
2022/01/11 12:26:16;;;;;;;;;9.50;9.50;9.80;99.90;;;;;;5008831;28;11470;-54
2022/01/11 12:29:12;;;;;;;;;8.00;8.00;9.80;99.90;;;;;;5010980;28;11507;-51
2022/01/11 12:32:14;;;;;;;;;8.25;8.25;9.80;99.90;;;;;;5013111;28;11631;-54
2022/01/11 12:34:50;;;;;;;;;8.00;8.00;9.80;99.90;;;;;;5015633;28;11508;-55
2022/01/11 12:37:30;;;;;;;;;10.00;10.00;9.80;99.90;;;;;;5016549;28;11541;-54
2022/01/11 12:40:15;;;;;;;;;9.25;9.25;9.80;99.90;;;;;;5012262;28;11598;-52
2022/01/11 12:43:09;;;;;;;;;7.50;7.50;9.80;99.90;;;;;;4996956;28;11541;-52
2022/01/11 12:45:58;;;;;;;;;10.00;10.00;9.70;99.90;;;;;;5014372;28;11514;-55
2022/01/11 12:48:48;;;;;;;;;11.25;11.25;9.70;99.90;;;;;;4998464;28;11560;-55
2022/01/11 12:51:31;;;;;;;;;9.00;9.00;9.70;99.90;;;;;;5011871;28;11484;-52
2022/01/11 12:54:25;;;;;;;;;12.00;12.00;9.70;99.90;;;;;;5010120;28;12284;-56
2022/01/11 12:57:02;;;;;;;;;10.00;10.00;9.70;99.90;;;;;;5013329;28;12017;-53
2022/01/11 12:59:37;;;;;;;;;10.00;10.00;9.60;99.90;;;;;;5011769;28;11512;-52
2022/01/11 13:02:13;;;;;;;;;10.00;10.00;9.50;99.90;;;;;;4996912;28;11549;-53
2022/01/11 13:04:48;;;;;;;;;5.00;5.00;9.50;99.90;;;;;;5011522;28;11765;-54
2022/01/11 13:07:29;;;;;;;;;10.25;10.25;9.60;99.90;;;;;;5014978;28;11499;-54
2022/01/11 13:10:19;;;;;;;;;8.50;8.50;9.60;99.90;;;;;;5009045;28;11481;-54
2022/01/11 13:13:04;;;;;;;;;10.00;10.00;9.60;99.90;;;;;;4998768;28;11562;-55
2022/01/11 13:15:41;;;;;;;;;11.00;11.00;9.60;99.90;;;;;;4991153;28;11582;-54